Time;durP1;ratioP1;P1;durP2;ratioP2;P2;SDS_P1;SDS_P2;PMS_P1;PMS_P2;Temp;Humidity;BMP_temperature;BMP_pressure;BME280_temperature;BME280_humidity;BME280_pressure;Samples;Min_cycle;Max_cycle;Signal;HPM_P1;HPM_P2
2021/10/20 04:15:13;;;;;;;0.50;0.50;;;;;;;5.76;100.00;98829.97;6034537;23;20024;31
2021/10/20 04:17:39;;;;;;;2.45;1.40;;;;;;;5.75;100.00;98835.94;4898188;29;20422;-76
2021/10/20 04:20:13;;;;;;;0.85;0.85;;;;;;;5.80;100.00;98829.97;4899962;29;20028;-76
2021/10/20 04:22:38;;;;;;;0.50;0.50;;;;;;;5.80;100.00;98824.84;4899869;29;20024;-76
2021/10/20 04:25:05;;;;;;;0.77;0.77;;;;;;;5.79;100.00;98817.09;4899880;29;20029;-76
2021/10/20 04:27:31;;;;;;;0.50;0.50;;;;;;;5.77;100.00;98823.97;4918006;29;20072;-76
2021/10/20 04:29:58;;;;;;;0.75;0.75;;;;;;;5.81;100.00;98826.53;4919094;29;20040;-72
2021/10/20 04:32:24;;;;;;;1.15;1.15;;;;;;;5.78;100.00;98830.81;4918453;29;20071;-73
2021/10/20 04:34:49;;;;;;;0.77;0.77;;;;;;;5.87;100.00;98818.84;4883420;29;20040;-73
2021/10/20 04:37:15;;;;;;;0.77;0.77;;;;;;;5.91;100.00;98823.16;4881653;29;20063;-73
2021/10/20 04:39:40;;;;;;;0.40;0.40;;;;;;;5.91;100.00;98823.16;4929432;29;20028;-73
2021/10/20 04:42:05;;;;;;;0.60;0.60;;;;;;;5.93;100.00;98821.44;4918367;29;20024;-73
2021/10/20 04:44:31;;;;;;;1.27;1.23;;;;;;;5.93;100.00;98821.44;4918262;29;20028;-70
2021/10/20 04:46:56;;;;;;;0.63;0.63;;;;;;;5.92;100.00;98824.88;4918304;29;20031;-78
2021/10/20 04:49:21;;;;;;;0.68;0.68;;;;;;;5.90;100.00;98815.41;4918275;29;20079;-72
2021/10/20 04:51:47;;;;;;;0.82;0.82;;;;;;;5.83;100.00;98809.41;4918188;29;20028;-72
2021/10/20 04:54:12;;;;;;;0.63;0.63;;;;;;;5.84;100.00;98813.69;4918359;29;20032;-72
2021/10/20 04:56:38;;;;;;;1.05;1.02;;;;;;;5.84;100.00;98820.53;4918045;29;20028;-73
2021/10/20 04:59:03;;;;;;;0.60;0.60;;;;;;;5.84;100.00;98810.25;4916712;29;20107;-73
2021/10/20 05:01:28;;;;;;;0.50;0.50;;;;;;;5.81;100.00;98805.97;4917755;29;20492;-72
2021/10/20 05:03:54;;;;;;;0.55;0.55;;;;;;;5.90;100.00;98806.00;4918018;29;20031;-72
2021/10/20 05:06:19;;;;;;;0.40;0.40;;;;;;;5.90;100.00;98793.13;4917851;29;20386;-72
2021/10/20 05:08:44;;;;;;;0.70;0.70;;;;;;;5.85;100.00;98794.84;4917960;29;20103;-73
2021/10/20 05:11:10;;;;;;;0.47;0.47;;;;;;;5.86;100.00;98803.41;4917668;29;20103;-72
2021/10/20 05:13:35;;;;;;;0.60;0.60;;;;;;;5.74;100.00;98793.94;4917671;29;20502;-72
2021/10/20 05:16:00;;;;;;;0.80;0.80;;;;;;;5.65;100.00;98799.06;4917432;29;20036;-73
2021/10/20 05:18:26;;;;;;;0.88;0.88;;;;;;;5.64;100.00;98799.94;4917921;29;20039;-72
2021/10/20 05:20:51;;;;;;;0.60;0.60;;;;;;;5.58;100.00;98797.38;4917638;29;20517;-72
2021/10/20 05:23:16;;;;;;;0.75;0.75;;;;;;;5.57;100.00;98785.38;4917563;29;20032;-73
2021/10/20 05:25:42;;;;;;;1.13;1.08;;;;;;;5.46;100.00;98782.75;4917495;29;20036;-72
2021/10/20 05:28:08;;;;;;;0.73;0.73;;;;;;;5.48;100.00;98780.22;4917603;29;20474;-73
2021/10/20 05:30:34;;;;;;;0.73;0.73;;;;;;;5.54;100.00;98775.06;4917335;29;20027;-75
2021/10/20 05:33:00;;;;;;;0.73;0.73;;;;;;;5.50;100.00;98768.22;4917533;29;20032;-75
2021/10/20 05:35:26;;;;;;;0.57;0.57;;;;;;;5.54;100.00;98782.78;4917269;29;20047;-70
2021/10/20 05:37:52;;;;;;;1.77;1.67;;;;;;;5.58;100.00;98777.66;4917416;29;20024;-70
2021/10/20 05:40:19;;;;;;;0.50;0.50;;;;;;;5.59;100.00;98778.50;4917290;29;20068;-70
2021/10/20 05:42:44;;;;;;;0.80;0.80;;;;;;;5.58;100.00;98776.81;4916872;29;20032;-70
2021/10/20 05:45:10;;;;;;;1.60;1.50;;;;;;;5.51;100.00;98775.06;4916974;29;20174;-70
2021/10/20 05:47:35;;;;;;;0.70;0.70;;;;;;;5.47;100.00;98770.78;4917267;29;20343;-75
2021/10/20 05:50:00;;;;;;;0.85;0.85;;;;;;;5.41;100.00;98780.19;4917253;29;20039;-73
2021/10/20 05:52:26;;;;;;;0.88;0.88;;;;;;;5.40;100.00;98778.47;4916855;29;20552;-75
2021/10/20 05:54:51;;;;;;;3.72;2.45;;;;;;;5.33;100.00;98791.31;4917143;29;20032;-75
2021/10/20 05:57:17;;;;;;;0.63;0.63;;;;;;;5.30;100.00;98776.72;4916889;29;20498;-75
2021/10/20 05:59:42;;;;;;;0.60;0.60;;;;;;;5.38;100.00;98780.19;4916871;29;20386;-71
2021/10/20 06:02:11;;;;;;;1.13;1.13;;;;;;;5.38;100.00;98779.31;4916692;29;20418;-71
2021/10/20 06:04:36;;;;;;;0.60;0.60;;;;;;;5.41;100.00;98785.34;4917034;29;20020;-71
2021/10/20 06:07:02;;;;;;;0.75;0.75;;;;;;;5.47;100.00;98773.34;4916735;29;20032;-71
2021/10/20 06:09:28;;;;;;;1.05;1.05;;;;;;;5.51;100.00;98770.81;4916741;29;20039;-71
2021/10/20 06:11:54;;;;;;;0.93;0.93;;;;;;;5.65;100.00;98778.50;4916095;29;20023;-72
2021/10/20 06:14:19;;;;;;;1.35;1.20;;;;;;;5.75;100.00;98775.09;4916480;29;20557;-71
2021/10/20 06:16:44;;;;;;;0.60;0.60;;;;;;;5.77;100.00;98778.53;4916460;29;20038;-71
2021/10/20 06:19:10;;;;;;;0.50;0.50;;;;;;;5.87;100.00;98769.97;4915676;29;20063;-71
2021/10/20 06:21:35;;;;;;;0.47;0.47;;;;;;;5.90;100.00;98775.13;4916349;29;20382;-74
2021/10/20 06:24:00;;;;;;;0.57;0.57;;;;;;;6.05;100.00;98769.16;4916528;29;20028;-74
2021/10/20 06:26:26;;;;;;;0.70;0.70;;;;;;;6.02;100.00;98776.03;4916525;29;20482;-72
2021/10/20 06:28:51;;;;;;;0.40;0.40;;;;;;;6.18;100.00;98770.84;4916351;29;20568;-74
2021/10/20 06:31:17;;;;;;;0.50;0.50;;;;;;;6.12;100.00;98770.00;4916337;29;20111;-72
2021/10/20 06:33:42;;;;;;;1.05;1.05;;;;;;;6.34;100.00;98766.59;4916477;29;20027;-72
2021/10/20 06:36:28;;;;;;;0.50;0.50;;;;;;;6.34;100.00;98766.59;4916304;29;20036;-74
2021/10/20 06:38:54;;;;;;;0.80;0.80;;;;;;;6.17;100.00;98768.28;4916292;29;20028;-74
2021/10/20 06:41:19;;;;;;;0.60;0.60;;;;;;;6.24;100.00;98774.28;4915975;29;20024;-74
2021/10/20 06:43:44;;;;;;;0.65;0.65;;;;;;;6.11;100.00;98778.59;4930710;29;20900;-73
2021/10/20 06:46:10;;;;;;;0.52;0.52;;;;;;;6.06;100.00;98775.16;4916229;29;20043;-74
2021/10/20 06:48:37;;;;;;;1.50;1.25;;;;;;;6.10;100.00;98782.03;4916196;29;20032;-71
2021/10/20 06:51:03;;;;;;;0.75;0.75;;;;;;;6.18;100.00;98780.28;4899924;29;20051;-71
2021/10/20 06:53:28;;;;;;;0.77;0.77;;;;;;;6.23;100.00;98778.56;4897016;29;20379;-72
2021/10/20 06:55:53;;;;;;;0.40;0.40;;;;;;;6.27;100.00;98779.44;4897118;29;20024;-72
2021/10/20 06:58:19;;;;;;;0.70;0.70;;;;;;;6.13;100.00;98789.72;4897140;29;20066;-72
2021/10/20 07:00:44;;;;;;;0.85;0.85;;;;;;;6.10;100.00;98784.59;4897315;29;20028;-72
2021/10/20 07:03:09;;;;;;;0.80;0.80;;;;;;;6.11;100.00;98783.75;4896930;29;20083;-71
2021/10/20 07:05:34;;;;;;;0.73;0.73;;;;;;;6.25;100.00;98776.03;4896884;29;20063;-72
2021/10/20 07:08:00;;;;;;;0.40;0.40;;;;;;;6.40;100.00;98771.72;4897129;29;20036;-72
2021/10/20 07:10:25;;;;;;;0.50;0.50;;;;;;;6.55;100.00;98780.25;4896959;29;20156;-72
2021/10/20 07:12:50;;;;;;;0.60;0.60;;;;;;;6.65;100.00;98776.81;4896805;29;20612;-71
2021/10/20 07:15:16;;;;;;;0.50;0.50;;;;;;;6.63;100.00;98775.97;4896711;29;20024;-72
2021/10/20 07:17:41;;;;;;;0.93;0.93;;;;;;;6.87;100.00;98772.47;4896879;29;20032;-72
2021/10/20 07:20:07;;;;;;;1.42;1.38;;;;;;;7.08;100.00;98767.22;4896938;29;20052;-72
2021/10/20 07:22:38;;;;;;;0.47;0.47;;;;;;;7.44;99.73;98766.16;4897129;29;20521;-72
2021/10/20 07:25:04;;;;;;;1.73;1.35;;;;;;;7.46;97.95;98764.47;4915312;29;20454;-72
2021/10/20 07:27:32;;;;;;;1.95;1.85;;;;;;;7.62;97.34;98766.94;4900635;29;20123;-72
2021/10/20 07:29:57;;;;;;;1.40;0.75;;;;;;;7.58;96.81;98765.25;4900963;29;20453;-72
2021/10/20 07:32:23;;;;;;;0.93;0.93;;;;;;;7.92;96.34;98758.97;4900668;29;20112;-72
2021/10/20 07:34:48;;;;;;;0.50;0.50;;;;;;;7.93;95.51;98755.56;4900661;29;20372;-72
2021/10/20 07:37:13;;;;;;;0.90;0.90;;;;;;;8.32;93.97;98761.25;4900547;29;20183;-72
2021/10/20 07:39:39;;;;;;;0.75;0.75;;;;;;;8.10;94.37;98757.13;4900597;29;20157;-69
2021/10/20 07:42:04;;;;;;;1.00;1.00;;;;;;;8.20;94.22;98748.44;4900186;29;20072;-69
2021/10/20 07:44:30;;;;;;;2.83;1.10;;;;;;;8.10;95.14;98757.13;4900456;29;20410;-69
2021/10/20 07:46:55;;;;;;;1.27;1.27;;;;;;;8.36;93.94;98755.19;4899124;29;20032;-69
2021/10/20 07:49:20;;;;;;;0.50;0.50;;;;;;;8.95;92.35;98745.97;4900435;29;20032;-69
2021/10/20 07:51:46;;;;;;;1.10;0.75;;;;;;;9.67;88.15;98724.31;4900103;29;20027;-69
2021/10/20 07:54:11;;;;;;;0.50;0.50;;;;;;;11.17;81.28;98724.19;4900779;29;20032;-69
2021/10/20 07:56:42;;;;;;;0.82;0.82;;;;;;;13.31;71.60;98713.53;4900103;29;20042;-70
2021/10/20 07:59:08;;;;;;;0.60;0.60;;;;;;;14.67;64.50;98707.41;4900494;29;20025;-70
2021/10/20 08:01:33;;;;;;;0.40;0.40;;;;;;;15.31;61.01;98702.41;4899998;29;20035;-70
2021/10/20 08:03:59;;;;;;;1.05;1.00;;;;;;;16.98;56.35;98701.56;4900297;29;20036;-70
2021/10/20 08:06:24;;;;;;;0.57;0.57;;;;;;;16.55;57.84;98695.59;4900145;29;20028;-70
2021/10/20 08:08:49;;;;;;;1.27;0.85;;;;;;;17.04;55.93;98696.03;4900004;29;20099;-75
2021/10/20 08:11:15;;;;;;;0.82;0.82;;;;;;;17.95;53.52;98692.66;4899848;29;20107;-75
2021/10/20 08:13:40;;;;;;;1.00;0.98;;;;;;;17.53;54.08;98680.66;4899908;29;20385;-75
2021/10/20 08:16:05;;;;;;;0.98;0.95;;;;;;;19.41;49.51;98683.28;4899969;29;20028;-75
2021/10/20 08:18:31;;;;;;;1.48;1.40;;;;;;;18.93;49.58;98688.47;4899935;29;20029;-75
2021/10/20 08:20:56;;;;;;;2.03;1.70;;;;;;;21.17;45.31;98681.63;4899869;29;20501;-75
2021/10/20 08:23:22;;;;;;;1.05;1.05;;;;;;;21.19;45.29;98679.78;4899562;29;20387;-75
2021/10/20 08:25:47;;;;;;;1.17;1.17;;;;;;;21.28;44.38;98688.88;4898481;29;20027;-75
2021/10/20 08:28:13;;;;;;;3.47;1.77;;;;;;;19.94;48.61;98682.06;4899727;29;20024;-75
2021/10/20 08:30:38;;;;;;;1.50;0.95;;;;;;;19.96;47.14;98674.91;4899751;29;20482;-72
2021/10/20 08:33:04;;;;;;;0.82;0.82;;;;;;;22.62;43.63;98668.63;4899309;29;20043;-71
2021/10/20 08:35:30;;;;;;;0.82;0.82;;;;;;;22.99;40.58;98671.38;4898176;29;20088;-73
2021/10/20 08:38:01;;;;;;;0.80;0.80;;;;;;;23.25;41.83;98678.28;4899495;29;20028;-73
2021/10/20 08:40:35;;;;;;;1.45;1.35;;;;;;;23.30;41.33;98673.50;4898765;29;20032;-73
2021/10/20 08:43:01;;;;;;;0.80;0.80;;;;;;;23.74;39.40;98674.78;4899171;29;20475;-73
2021/10/20 08:45:27;;;;;;;0.80;0.80;;;;;;;21.92;44.56;98676.00;4899387;29;20052;-73
2021/10/20 08:47:53;;;;;;;1.58;1.08;;;;;;;23.63;41.17;98664.09;4913878;29;20028;-73
2021/10/20 08:50:21;;;;;;;1.05;0.95;;;;;;;22.45;43.93;98661.03;4899420;29;20028;-75
2021/10/20 08:52:48;;;;;;;0.52;0.52;;;;;;;21.99;45.05;98674.63;4899090;29;20033;-75
2021/10/20 08:55:16;;;;;;;0.88;0.85;;;;;;;21.50;46.88;98672.56;4899442;29;20116;-70
2021/10/20 08:57:45;;;;;;;0.40;0.40;;;;;;;22.98;44.83;98685.56;4899338;29;20036;-75
2021/10/20 09:00:12;;;;;;;1.15;1.05;;;;;;;22.31;45.83;98676.00;4899286;29;20048;-73
2021/10/20 09:02:41;;;;;;;0.50;0.50;;;;;;;24.11;42.01;98666.75;4899122;29;20044;-73
2021/10/20 09:05:13;;;;;;;0.85;0.80;;;;;;;23.96;42.84;98667.88;4898956;29;20031;-73
2021/10/20 09:07:47;;;;;;;0.63;0.63;;;;;;;24.42;40.15;98665.31;4899404;29;20033;-73
2021/10/20 09:10:14;;;;;;;0.95;0.57;;;;;;;21.42;46.56;98661.66;4899381;29;20100;-73
2021/10/20 09:12:40;;;;;;;0.88;0.88;;;;;;;19.89;50.59;98673.56;4898708;29;20074;-73
2021/10/20 09:15:12;;;;;;;0.32;0.32;;;;;;;24.31;39.10;98658.13;4898979;29;20207;-73
2021/10/20 09:18:03;;;;;;;0.40;0.40;;;;;;;25.82;35.38;98663.91;4898929;29;20033;-73
2021/10/20 09:20:36;;;;;;;0.90;0.47;;;;;;;27.87;29.91;98640.78;4898277;29;20044;-73
2021/10/20 09:23:04;;;;;;;0.40;0.40;;;;;;;27.12;32.39;98644.00;4898807;29;20037;-73
2021/10/20 09:25:59;;;;;;;0.60;0.60;;;;;;;26.67;31.57;98633.72;4898630;29;20043;-73
2021/10/20 09:28:31;;;;;;;0.80;0.80;;;;;;;26.45;31.62;98626.78;4898468;29;20402;-73
2021/10/20 09:30:57;;;;;;;0.20;0.20;;;;;;;25.92;33.69;98615.31;4898657;29;20403;-73
2021/10/20 09:33:24;;;;;;;0.50;0.50;;;;;;;26.91;31.56;98615.63;4898471;29;20020;-73
2021/10/20 09:35:50;;;;;;;0.22;0.22;;;;;;;25.25;32.57;98600.50;4897211;29;20032;-73
2021/10/20 09:38:15;;;;;;;0.22;0.22;;;;;;;24.74;33.19;98595.69;4898540;29;20387;-73
2021/10/20 09:40:43;;;;;;;0.40;0.40;;;;;;;23.38;37.04;98608.66;4897513;29;20414;-72
2021/10/20 09:43:11;;;;;;;0.10;0.10;;;;;;;21.28;39.03;98605.41;4891943;29;20027;-72
2021/10/20 09:45:42;;;;;;;0.52;0.52;;;;;;;21.17;40.44;98602.59;4897427;29;20040;-71
2021/10/20 09:48:13;;;;;;;0.52;0.52;;;;;;;22.48;38.79;98581.56;4898476;29;20390;-73
2021/10/20 09:50:40;;;;;;;0.75;0.75;;;;;;;22.55;39.33;98577.56;4912782;29;20032;-72
2021/10/20 09:53:06;;;;;;;0.35;0.35;;;;;;;23.39;36.46;98565.41;4898104;29;20060;-72
2021/10/20 09:55:32;;;;;;;0.22;0.22;;;;;;;25.56;31.79;98554.53;4897371;29;20068;-73
2021/10/20 09:58:12;;;;;;;0.60;0.60;;;;;;;26.70;30.97;98559.03;4898027;29;20039;-73
2021/10/20 10:00:37;;;;;;;0.28;0.28;;;;;;;24.68;34.84;98559.94;4897564;29;20024;-72
2021/10/20 10:03:05;;;;;;;0.00;0.00;;;;;;;27.74;29.82;98547.03;4897715;29;20083;-76
2021/10/20 10:05:31;;;;;;;0.10;0.10;;;;;;;28.15;29.18;98547.66;4897951;29;20021;-76
2021/10/20 10:07:57;;;;;;;0.60;0.60;;;;;;;27.81;28.41;98550.81;4897957;29;20107;-73
2021/10/20 10:10:22;;;;;;;0.10;0.10;;;;;;;27.68;29.88;98551.06;4896754;29;20119;-73
2021/10/20 10:12:53;;;;;;;1.67;0.38;;;;;;;27.13;30.22;98544.63;4897818;29;20024;-75
2021/10/20 10:15:19;;;;;;;0.30;0.30;;;;;;;26.90;31.37;98528.84;4897713;29;20029;-75
2021/10/20 10:17:50;;;;;;;0.20;0.20;;;;;;;25.88;33.07;98530.66;4897773;29;20036;-73
2021/10/20 10:20:16;;;;;;;0.65;0.57;;;;;;;25.95;32.37;98546.03;4897770;29;20418;-70
2021/10/20 10:23:02;;;;;;;0.22;0.22;;;;;;;27.79;30.38;98535.94;4897442;29;20483;-70
2021/10/20 10:25:36;;;;;;;0.20;0.20;;;;;;;27.04;31.57;98532.13;4897803;29;20638;-70
2021/10/20 10:28:19;;;;;;;0.08;0.08;;;;;;;25.39;33.29;98531.25;4896345;29;20032;-71
2021/10/20 10:30:50;;;;;;;0.25;0.25;;;;;;;24.75;35.45;98536.44;4968217;23;20047;-73
2021/10/20 10:33:26;;;;;;;0.10;0.10;;;;;;;24.84;34.91;98525.94;4967718;28;20479;-74
2021/10/20 10:36:10;;;;;;;0.80;0.80;;;;;;;24.99;34.68;98523.00;4973924;28;20447;-73
2021/10/20 10:38:48;;;;;;;0.20;0.20;;;;;;;24.16;35.39;98516.31;4973680;28;20071;-74
2021/10/20 10:41:27;;;;;;;0.10;0.10;;;;;;;23.40;37.53;98522.13;4969301;28;20476;-73
2021/10/20 10:44:07;;;;;;;0.40;0.40;;;;;;;23.84;37.59;98514.38;4964681;28;20499;-73
2021/10/20 10:46:33;;;;;;;;;;;;;;;25.50;34.57;98514.41;4974034;28;20033;-74
2021/10/20 10:48:59;;;;;;;0.30;0.30;;;;;;;23.60;37.49;98518.84;4973374;28;19910;-74
2021/10/20 10:51:25;;;;;;;0.43;0.43;;;;;;;22.53;39.35;98500.25;4973604;28;20035;-74
2021/10/20 10:53:52;;;;;;;0.15;0.15;;;;;;;22.78;39.19;98508.09;4973390;28;20030;-72
2021/10/20 10:56:18;;;;;;;0.30;0.30;;;;;;;23.55;38.68;98502.47;4973508;28;20101;-72
2021/10/20 10:58:54;;;;;;;0.20;0.20;;;;;;;23.88;37.84;98500.88;4973296;28;20109;-72
2021/10/20 11:01:39;;;;;;;0.28;0.28;;;;;;;22.72;39.40;98490.03;4965622;28;20428;-72
2021/10/20 11:04:24;;;;;;;0.35;0.30;;;;;;;22.31;41.31;98480.66;4935256;29;20113;-73
2021/10/20 11:06:52;;;;;;;2.53;1.13;;;;;;;24.38;36.98;98480.25;4935060;29;20055;-72
2021/10/20 11:09:26;;;;;;;0.43;0.43;;;;;;;22.63;40.37;98476.66;4934708;29;20549;-73
2021/10/20 11:11:54;;;;;;;0.20;0.20;;;;;;;23.19;38.38;98477.81;4946294;28;20042;-72
2021/10/20 11:14:22;;;;;;;0.40;0.40;;;;;;;22.81;39.36;98477.97;4965498;28;20089;-72
2021/10/20 11:16:49;;;;;;;0.30;0.30;;;;;;;22.70;40.38;98475.28;4973037;28;20101;-72
2021/10/20 11:19:20;;;;;;;0.28;0.28;;;;;;;23.56;38.40;98475.91;4973100;28;20026;-72
2021/10/20 11:21:45;;;;;;;0.70;0.70;;;;;;;22.42;40.79;98471.97;4972933;28;20149;-72
2021/10/20 11:24:13;;;;;;;0.40;0.40;;;;;;;22.60;40.59;98472.44;4973202;28;20095;-73
2021/10/20 11:26:38;;;;;;;0.65;0.65;;;;;;;22.46;40.66;98464.69;4972874;28;20070;-72
2021/10/20 11:29:08;;;;;;;0.10;0.10;;;;;;;23.39;39.73;98462.25;4972999;28;20113;-73
2021/10/20 11:31:37;;;;;;;0.10;0.10;;;;;;;23.83;37.84;98457.09;4963611;28;20033;-74
2021/10/20 11:34:16;;;;;;;;;;;;;;;25.30;36.58;98439.16;4934944;29;20027;-74
2021/10/20 11:36:43;;;;;;;0.30;0.30;;;;;;;26.78;33.42;98436.88;4934513;29;19917;-74
2021/10/20 11:39:10;;;;;;;0.30;0.30;;;;;;;26.29;33.74;98427.94;4934419;29;20046;-74
2021/10/20 11:41:35;;;;;;;0.20;0.20;;;;;;;25.72;34.27;98439.97;4941469;28;20396;-74
2021/10/20 11:44:01;;;;;;;0.73;0.47;;;;;;;26.35;34.20;98431.88;4964794;28;20022;-74
2021/10/20 11:46:31;;;;;;;0.38;0.38;;;;;;;25.67;34.90;98428.91;4972773;28;20106;-74
2021/10/20 11:49:01;;;;;;;0.30;0.30;;;;;;;25.26;35.90;98412.03;4972888;28;20019;-74
2021/10/20 11:51:26;;;;;;;2.63;0.68;;;;;;;25.19;36.01;98416.19;4972409;28;20500;-74
2021/10/20 11:53:51;;;;;;;1.52;0.60;;;;;;;24.97;37.17;98416.25;4973263;28;20062;-74
2021/10/20 11:56:17;;;;;;;0.30;0.30;;;;;;;25.77;35.76;98416.59;4972860;28;20110;-74
2021/10/20 11:58:43;;;;;;;0.50;0.50;;;;;;;26.40;34.46;98413.72;4972729;28;20037;-70
2021/10/20 12:01:09;;;;;;;0.10;0.10;;;;;;;26.29;34.40;98411.16;4966638;28;20372;-70
2021/10/20 12:03:41;;;;;;;1.02;0.47;;;;;;;25.95;35.96;98400.00;4969404;28;20031;-70
2021/10/20 12:06:11;;;;;;;0.20;0.20;;;;;;;23.97;39.07;98395.13;4972700;28;20030;-70
2021/10/20 12:08:45;;;;;;;0.25;0.25;;;;;;;22.78;41.39;98389.22;4973068;28;20411;-70
2021/10/20 12:11:18;;;;;;;1.00;0.70;;;;;;;22.64;42.21;98386.75;4972600;28;20099;-70
2021/10/20 12:13:43;;;;;;;1.23;0.30;;;;;;;22.63;42.30;98390.38;4965960;28;20078;-70
2021/10/20 12:16:11;;;;;;;0.60;0.55;;;;;;;22.29;42.74;98392.81;4976597;28;20436;-70
2021/10/20 12:18:38;;;;;;;0.57;0.57;;;;;;;22.15;43.28;98385.03;4976138;28;20034;-70
2021/10/20 12:21:10;;;;;;;0.52;0.52;;;;;;;22.05;43.48;98373.44;4975935;28;20066;-70
2021/10/20 12:23:37;;;;;;;0.20;0.20;;;;;;;21.89;43.83;98372.81;4976241;28;20105;-70
2021/10/20 12:26:03;;;;;;;0.10;0.10;;;;;;;22.31;43.08;98375.06;4976124;28;20019;-70
2021/10/20 12:28:29;;;;;;;0.65;0.65;;;;;;;22.52;42.99;98374.44;4975991;28;20519;-70
2021/10/20 12:30:56;;;;;;;0.30;0.30;;;;;;;22.65;41.97;98363.84;4971696;28;20100;-70
2021/10/20 12:33:23;;;;;;;0.40;0.40;;;;;;;22.83;41.87;98360.66;4970683;28;20023;-70
2021/10/20 12:35:50;;;;;;;0.47;0.47;;;;;;;23.34;41.67;98365.63;4976093;28;20035;-70
2021/10/20 12:38:17;;;;;;;0.20;0.20;;;;;;;22.92;42.30;98363.59;4974623;28;20391;-70
2021/10/20 12:40:46;;;;;;;0.32;0.22;;;;;;;22.80;43.87;98352.97;4975583;28;20504;-70
2021/10/20 12:43:16;;;;;;;0.20;0.20;;;;;;;23.03;43.38;98345.97;4964185;28;20098;-70
2021/10/20 12:45:46;;;;;;;0.15;0.15;;;;;;;22.87;42.63;98356.00;4973188;28;20480;-70
2021/10/20 12:48:12;;;;;;;0.13;0.13;;;;;;;22.76;43.27;98346.22;4975662;28;20038;-70
2021/10/20 12:50:40;;;;;;;0.52;0.35;;;;;;;22.65;44.35;98335.63;4975461;28;20023;-70
2021/10/20 12:53:09;;;;;;;0.22;0.22;;;;;;;22.31;44.80;98343.38;4975512;28;20416;-70
2021/10/20 12:55:34;;;;;;;;;;;;;;;22.09;44.67;98343.22;4975903;28;20122;-70
2021/10/20 12:58:01;;;;;;;0.25;0.25;;;;;;;21.97;45.36;98342.31;4975646;28;19946;-70
2021/10/20 13:00:28;;;;;;;1.75;1.17;;;;;;;21.91;45.53;98328.72;4973767;28;20022;-70
2021/10/20 13:02:56;;;;;;;0.45;0.45;;;;;;;21.94;45.98;98333.75;4967232;28;20029;-70
2021/10/20 13:05:22;;;;;;;0.57;0.57;;;;;;;21.85;46.33;98345.81;4975289;28;20101;-70
2021/10/20 13:07:48;;;;;;;0.38;0.30;;;;;;;21.70;47.00;98337.19;4975367;28;20077;-70
2021/10/20 13:10:17;;;;;;;0.20;0.20;;;;;;;21.47;47.67;98336.19;4975641;28;20122;-70
2021/10/20 13:12:46;;;;;;;0.43;0.43;;;;;;;21.34;47.70;98337.13;4966708;28;20472;-70
2021/10/20 13:15:12;;;;;;;0.22;0.22;;;;;;;21.26;47.89;98337.59;4968999;28;20038;-70
2021/10/20 13:17:41;;;;;;;0.75;0.63;;;;;;;21.18;48.29;98339.94;4974999;28;20055;-70
2021/10/20 13:20:15;;;;;;;0.93;0.40;;;;;;;21.11;48.57;98338.66;4974184;28;20439;-70
2021/10/20 13:22:43;;;;;;;0.65;0.65;;;;;;;21.09;48.37;98335.31;4974857;28;20026;-70
2021/10/20 13:25:09;;;;;;;0.20;0.20;;;;;;;21.17;48.33;98322.44;4975105;28;20034;-70
2021/10/20 13:27:35;;;;;;;0.30;0.30;;;;;;;21.22;48.50;98331.69;4974924;28;20031;-70
2021/10/20 13:30:04;;;;;;;0.32;0.32;;;;;;;21.12;48.77;98319.25;4973481;28;20380;-71
2021/10/20 13:32:30;;;;;;;0.10;0.10;;;;;;;20.94;49.03;98329.28;4966804;28;20023;-70
2021/10/20 13:34:56;;;;;;;37.88;1.15;;;;;;;20.90;49.63;98327.78;4974883;28;20031;-70
2021/10/20 13:37:22;;;;;;;0.20;0.20;;;;;;;20.87;49.81;98330.63;4974787;28;20107;-74
2021/10/20 13:39:47;;;;;;;0.20;0.20;;;;;;;20.84;50.35;98325.56;4974688;28;20079;-74
2021/10/20 13:42:12;;;;;;;0.93;0.30;;;;;;;20.73;49.98;98319.22;4967333;28;20113;-74
2021/10/20 13:44:38;;;;;;;0.32;0.32;;;;;;;20.70;49.97;98314.19;4966603;28;20033;-74
2021/10/20 13:47:03;;;;;;;7.05;0.52;;;;;;;20.74;50.15;98315.66;4974837;28;20023;-74
2021/10/20 13:49:29;;;;;;;0.10;0.10;;;;;;;20.75;50.11;98312.06;4974532;28;20031;-74
2021/10/20 13:51:54;;;;;;;0.65;0.50;;;;;;;20.84;50.24;98305.34;4974421;28;20050;-74
2021/10/20 13:54:19;;;;;;;0.38;0.38;;;;;;;20.91;49.80;98300.50;4974451;28;20023;-74
2021/10/20 13:56:44;;;;;;;0.10;0.10;;;;;;;21.00;48.95;98299.88;4974925;28;20050;-74
2021/10/20 13:59:12;;;;;;;0.25;0.25;;;;;;;21.06;49.06;98288.91;4974245;28;20023;-74
2021/10/20 14:01:38;;;;;;;0.60;0.60;;;;;;;21.03;49.43;98279.44;4964909;28;20031;-74
2021/10/20 14:04:03;;;;;;;0.65;0.10;;;;;;;20.93;49.97;98288.91;4974332;28;20030;-74
2021/10/20 14:06:30;;;;;;;0.68;0.30;;;;;;;20.86;49.61;98281.53;4974222;28;20023;-74
2021/10/20 14:08:55;;;;;;;0.20;0.20;;;;;;;20.77;50.53;98273.31;4974237;28;20105;-74
2021/10/20 14:11:20;;;;;;;0.32;0.32;;;;;;;20.77;49.76;98265.41;4968863;28;20054;-74
2021/10/20 14:13:46;;;;;;;0.15;0.15;;;;;;;20.84;49.49;98262.34;4963919;28;20090;-74
2021/10/20 14:16:12;;;;;;;0.30;0.30;;;;;;;20.90;49.00;98261.94;4974192;28;20026;-74
2021/10/20 14:18:40;;;;;;;0.30;0.30;;;;;;;20.88;48.91;98263.84;4948687;28;20070;-74
2021/10/20 14:21:07;;;;;;;0.10;0.10;;;;;;;20.92;49.38;98270.59;4973848;28;20035;-74
2021/10/20 14:23:34;;;;;;;0.10;0.10;;;;;;;20.87;49.44;98263.00;4973982;28;20021;-74
2021/10/20 14:26:00;;;;;;;0.20;0.20;;;;;;;20.95;49.41;98255.41;4973735;28;20026;-74
2021/10/20 14:28:25;;;;;;;0.10;0.10;;;;;;;21.20;49.15;98236.13;4974201;28;20332;-74
2021/10/20 14:30:52;;;;;;;0.40;0.40;;;;;;;21.14;48.84;98228.66;4969900;28;20041;-74
2021/10/20 14:33:17;;;;;;;0.10;0.10;;;;;;;21.17;49.17;98228.41;4967613;28;20027;-70
2021/10/20 14:35:42;;;;;;;0.20;0.20;;;;;;;21.27;48.72;98229.47;4973678;28;20077;-70
2021/10/20 14:38:08;;;;;;;0.90;0.40;;;;;;;21.28;48.99;98225.03;4973823;28;20073;-70
2021/10/20 14:40:33;;;;;;;0.40;0.40;;;;;;;21.22;49.26;98242.09;4973412;28;20026;-70
2021/10/20 14:43:01;;;;;;;0.38;0.38;;;;;;;21.15;49.63;98238.22;4963443;28;20023;-70
2021/10/20 14:45:28;;;;;;;0.52;0.52;;;;;;;20.98;50.07;98233.28;4969244;28;20030;-70
2021/10/20 14:47:55;;;;;;;0.90;0.90;;;;;;;21.13;49.60;98240.13;4973532;28;20037;-70
2021/10/20 14:50:20;;;;;;;0.20;0.20;;;;;;;21.06;49.82;98225.69;4973151;28;20026;-70
2021/10/20 14:52:45;;;;;;;0.10;0.10;;;;;;;20.89;50.04;98223.41;4971860;28;20033;-70
2021/10/20 14:55:11;;;;;;;0.38;0.38;;;;;;;20.76;50.57;98218.97;4973214;28;20065;-70
2021/10/20 14:57:36;;;;;;;0.52;0.52;;;;;;;20.66;50.94;98223.19;4973130;28;20472;-70
2021/10/20 15:00:03;;;;;;;0.88;0.88;;;;;;;20.52;51.04;98210.94;4971804;28;20031;-70
2021/10/20 15:02:29;;;;;;;0.25;0.25;;;;;;;20.46;51.19;98202.59;4964832;28;20023;-70
2021/10/20 15:04:54;;;;;;;0.35;0.35;;;;;;;20.40;51.64;98200.34;4973274;28;20030;-70
2021/10/20 15:07:19;;;;;;;0.30;0.30;;;;;;;20.30;52.05;98189.59;4973029;28;20472;-70
2021/10/20 15:09:44;;;;;;;0.10;0.10;;;;;;;20.38;51.66;98191.72;4973077;28;20066;-70
2021/10/20 15:12:10;;;;;;;0.20;0.20;;;;;;;20.42;51.40;98194.06;4965910;28;20392;-70
2021/10/20 15:14:35;;;;;;;0.32;0.32;;;;;;;20.36;51.94;98189.22;4963596;28;20569;-70
2021/10/20 15:17:00;;;;;;;0.10;0.10;;;;;;;20.39;51.92;98188.16;4972942;28;20030;-70
2021/10/20 15:21:57;;;;;;;0.13;0.13;;;;;;;20.24;52.38;98180.34;4972799;28;20061;-70
2021/10/20 15:24:22;;;;;;;0.30;0.28;;;;;;;20.19;52.49;98177.19;4972822;28;20105;-70
2021/10/20 15:26:49;;;;;;;0.20;0.20;;;;;;;20.26;51.97;98178.47;4971989;28;20083;-70
2021/10/20 15:29:14;;;;;;;0.50;0.50;;;;;;;20.19;52.63;98171.91;4973044;28;20030;-70
2021/10/20 15:31:40;;;;;;;0.20;0.20;;;;;;;20.17;52.75;98176.44;4985551;28;20031;-70
2021/10/20 15:34:06;;;;;;;0.20;0.20;;;;;;;20.19;53.07;98171.91;4953686;28;20070;-70
2021/10/20 15:36:31;;;;;;;2.45;1.50;;;;;;;20.25;52.51;98171.50;4953702;28;20436;-70
2021/10/20 15:38:56;;;;;;;1.05;0.50;;;;;;;20.26;52.63;98167.94;4968255;28;20388;-70
2021/10/20 15:41:22;;;;;;;0.13;0.13;;;;;;;20.28;52.43;98160.78;4953525;28;20031;-70
2021/10/20 15:43:50;;;;;;;0.30;0.30;;;;;;;20.28;52.52;98159.94;4987018;28;20029;-70
2021/10/20 15:46:16;;;;;;;0.43;0.43;;;;;;;20.23;53.61;98165.50;4976899;28;20042;-70
2021/10/20 15:48:42;;;;;;;0.20;0.20;;;;;;;20.13;53.18;98156.53;4976860;28;20230;-71
2021/10/20 15:51:08;;;;;;;0.20;0.20;;;;;;;20.02;53.89;98149.38;4976772;28;20520;-70